createdAt,value
2023-03-08T00:02:30.779Z,97278.05
2023-03-08T00:07:38.768Z,97280.04
2023-03-08T00:12:46.046Z,97283.34
2023-03-08T00:17:53.608Z,97288.81
2023-03-08T00:23:01.082Z,97288.65
2023-03-08T00:28:08.828Z,97287.73
2023-03-08T00:33:16.291Z,97288.55
2023-03-08T00:38:24.128Z,97290.70
2023-03-08T00:43:31.832Z,97287.38
2023-03-08T00:48:39.083Z,97283.23
2023-03-08T00:53:46.639Z,97281.33
2023-03-08T00:58:54.413Z,97283.41
2023-03-08T01:04:02.533Z,97285.00
2023-03-08T01:09:10.612Z,97287.35
2023-03-08T01:14:18.181Z,97286.63
2023-03-08T01:19:25.489Z,97288.36
2023-03-08T01:28:51.123Z,97287.55
2023-03-08T01:33:57.116Z,97288.91
2023-03-08T01:39:02.058Z,97290.92
2023-03-08T01:44:07.356Z,97292.27
2023-03-08T01:49:14.314Z,97291.77
2023-03-08T01:54:22.872Z,97291.48
2023-03-08T01:59:28.031Z,97289.55
2023-03-08T02:04:32.654Z,97281.20
2023-03-08T02:09:37.270Z,97280.27
2023-03-08T02:14:43.595Z,97277.02
2023-03-08T02:19:53.019Z,97275.84
2023-03-08T02:24:57.193Z,97271.52
2023-03-08T02:30:03.199Z,97272.01
2023-03-08T02:35:09.285Z,97274.41
2023-03-08T02:40:18.944Z,97273.98
2023-03-08T02:45:23.396Z,97274.41
2023-03-08T02:50:29.031Z,97278.67
2023-03-08T02:55:35.851Z,97281.41
2023-03-08T03:00:41.689Z,97279.23
2023-03-08T03:05:46.359Z,97274.09
2023-03-08T03:10:50.775Z,97277.77
2023-03-08T03:15:55.263Z,97281.23
2023-03-08T03:21:05.279Z,97293.23
2023-03-08T03:26:11.658Z,97296.89
2023-03-08T03:31:18.323Z,97310.49
2023-03-08T03:36:23.697Z,97317.31
2023-03-08T03:41:28.070Z,97323.27
2023-03-08T03:46:32.158Z,97334.65
2023-03-08T03:51:37.660Z,97345.05
2023-03-08T03:56:41.649Z,97354.36
2023-03-08T04:01:46.280Z,97361.23
2023-03-08T04:06:51.165Z,97375.53
2023-03-08T04:11:55.909Z,97385.39
2023-03-08T04:17:00.132Z,97394.12
2023-03-08T04:22:04.841Z,97397.50
2023-03-08T04:27:09.115Z,97402.89
2023-03-08T04:32:13.196Z,97408.12
2023-03-08T04:37:17.663Z,97418.10
2023-03-08T04:42:22.410Z,97423.77
2023-03-08T04:47:26.600Z,97425.05
2023-03-08T04:52:30.818Z,97433.48
2023-03-08T04:57:35.277Z,97433.90
2023-03-08T05:02:39.516Z,97439.44
2023-03-08T05:07:44.057Z,97441.96
2023-03-08T05:12:48.755Z,97451.50
2023-03-08T05:17:53.408Z,97449.48
2023-03-08T05:22:59.344Z,97450.55
2023-03-08T05:28:04.247Z,97443.13
2023-03-08T05:33:08.356Z,97452.52
2023-03-08T05:48:18.156Z,97466.93
2023-03-08T05:53:26.133Z,97464.79
2023-03-08T05:58:34.225Z,97472.99
2023-03-08T06:03:42.211Z,97484.05
2023-03-08T06:08:50.988Z,97500.75
2023-03-08T06:13:58.672Z,97503.62
2023-03-08T06:19:06.856Z,97507.72
2023-03-08T06:24:14.392Z,97510.94
2023-03-08T06:29:22.429Z,97514.81
2023-03-08T06:34:30.120Z,97514.87
2023-03-08T06:39:37.580Z,97530.92
2023-03-08T06:44:44.966Z,97538.93
2023-03-08T06:49:54.036Z,97552.05
2023-03-08T06:55:01.647Z,97560.31
2023-03-08T07:00:12.611Z,97570.94
2023-03-08T07:05:20.831Z,97576.75
2023-03-08T07:10:28.546Z,97578.76
2023-03-08T07:15:36.094Z,97583.55
2023-03-08T07:20:44.194Z,97581.98
2023-03-08T07:25:52.276Z,97585.83
2023-03-08T07:30:59.712Z,97600.04
2023-03-08T07:36:08.526Z,97610.39
2023-03-08T07:41:16.019Z,97603.84
2023-03-08T07:46:23.648Z,97595.33
2023-03-08T07:51:31.491Z,97588.54
2023-03-08T07:56:38.945Z,97591.41
2023-03-08T08:01:46.348Z,97593.98
2023-03-08T08:08:08.686Z,97609.34
2023-03-08T08:13:17.973Z,97624.23
2023-03-08T08:18:25.588Z,97631.66
2023-03-08T08:23:34.255Z,97628.21
2023-03-08T08:28:43.406Z,97636.64
2023-03-08T08:33:50.887Z,97635.85
2023-03-08T08:38:58.293Z,97634.95
2023-03-08T08:44:05.699Z,97622.19
2023-03-08T08:49:12.994Z,97613.36
2023-03-08T08:54:20.586Z,97612.48
2023-03-08T08:59:27.674Z,97612.10
2023-03-08T09:04:34.900Z,97609.45
2023-03-08T09:15:01.805Z,97617.50
2023-03-08T09:20:09.347Z,97605.34
2023-03-08T09:25:13.909Z,97602.38
2023-03-08T09:30:19.214Z,97602.98
2023-03-08T09:35:23.743Z,97598.48
2023-03-08T09:40:29.955Z,97593.48
2023-03-08T09:45:34.738Z,97603.74
2023-03-08T09:50:46.243Z,97604.64
2023-03-08T09:55:55.783Z,97617.30
2023-03-08T10:01:06.427Z,97613.80
2023-03-08T10:06:19.619Z,97614.66
2023-03-08T10:11:32.139Z,97602.38
2023-03-08T10:16:40.037Z,97599.56
2023-03-08T10:21:46.002Z,97594.36
2023-03-08T10:26:51.288Z,97592.55
2023-03-08T10:31:55.838Z,97596.90
2023-03-08T10:37:02.139Z,97600.67
2023-03-08T10:42:15.622Z,97587.93
2023-03-08T10:47:22.780Z,97582.50
2023-03-08T10:52:29.034Z,97583.09
2023-03-08T10:57:34.317Z,97584.30
2023-03-08T11:02:38.450Z,97579.20
2023-03-08T11:07:51.814Z,97573.84
2023-03-08T11:18:52.095Z,97567.39
2023-03-08T11:24:09.723Z,97559.67
2023-03-08T11:29:30.818Z,97556.37
2023-03-08T11:34:55.152Z,97553.44
2023-03-08T11:40:15.066Z,97544.05
2023-03-08T11:45:29.684Z,97548.83
2023-03-08T11:50:41.708Z,97543.59
2023-03-08T11:56:15.437Z,97540.38
2023-03-08T12:01:26.993Z,97532.83
2023-03-08T12:06:40.303Z,97533.52
2023-03-08T12:11:51.423Z,97531.13
2023-03-08T12:17:08.162Z,97532.63
2023-03-08T12:22:40.207Z,97533.11
2023-03-08T12:27:52.746Z,97532.36
2023-03-08T12:33:04.092Z,97519.79
2023-03-08T12:38:32.043Z,97499.95
2023-03-08T12:43:42.528Z,97492.53
2023-03-08T12:48:53.989Z,97486.98
2023-03-08T12:54:04.468Z,97485.63
2023-03-08T12:59:39.148Z,97478.03
2023-03-08T13:04:47.664Z,97477.86
2023-03-08T13:10:01.173Z,97479.91
2023-03-08T13:15:29.066Z,97471.23
2023-03-08T13:20:57.973Z,97473.91
2023-03-08T13:26:26.886Z,97467.09
2023-03-08T13:31:35.319Z,97460.37
2023-03-08T13:36:49.942Z,97445.60
2023-03-08T13:42:13.500Z,97439.98
2023-03-08T13:47:27.044Z,97439.09
2023-03-08T13:52:39.504Z,97435.89
2023-03-08T13:57:54.330Z,97426.77
2023-03-08T14:03:03.995Z,97416.52
2023-03-08T14:08:22.556Z,97407.86
2023-03-08T14:13:32.679Z,97400.61
2023-03-08T14:18:42.015Z,97393.81
2023-03-08T14:23:54.630Z,97388.00
2023-03-08T14:29:22.892Z,97378.64
2023-03-08T14:34:34.208Z,97370.10
2023-03-08T14:39:43.493Z,97359.87
2023-03-08T14:44:58.100Z,97358.36
2023-03-08T14:50:19.631Z,97343.33
2023-03-08T14:55:29.143Z,97331.98
2023-03-08T15:00:37.193Z,97320.49
2023-03-08T15:05:46.004Z,97317.90
2023-03-08T15:10:54.162Z,97309.77
2023-03-08T15:16:02.367Z,97311.04
2023-03-08T15:21:11.875Z,97297.95
2023-03-08T15:26:23.641Z,97296.66
2023-03-08T15:31:31.855Z,97303.59
2023-03-08T15:36:39.715Z,97321.38
2023-03-08T15:41:47.401Z,97323.49
2023-03-08T15:46:55.292Z,97318.73
2023-03-08T15:52:03.289Z,97306.35
2023-03-08T15:57:10.913Z,97307.13
2023-03-08T16:02:20.738Z,97311.85
2023-03-08T16:07:28.448Z,97306.06
2023-03-08T16:12:36.480Z,97306.84
2023-03-08T16:17:44.597Z,97310.39
2023-03-08T16:22:52.089Z,97310.48
2023-03-08T16:27:59.362Z,97307.58
2023-03-08T16:33:07.996Z,97310.77
2023-03-08T16:38:15.346Z,97304.70
2023-03-08T16:43:23.250Z,97304.42
2023-03-08T16:48:31.684Z,97300.48
2023-03-08T16:53:39.110Z,97303.22
2023-03-08T16:58:46.393Z,97308.78
2023-03-08T17:03:54.201Z,97312.38
2023-03-08T17:09:01.707Z,97308.38
2023-03-08T17:14:12.005Z,97307.44
2023-03-08T17:19:21.743Z,97302.77
2023-03-08T17:24:31.312Z,97299.17
2023-03-08T17:29:38.698Z,97294.54
2023-03-08T17:34:46.660Z,97285.88
2023-03-08T17:39:54.399Z,97280.85
2023-03-08T17:45:02.945Z,97278.83
2023-03-08T17:50:14.383Z,97264.32
2023-03-08T17:55:22.331Z,97260.00
2023-03-08T18:00:30.073Z,97248.02
2023-03-08T18:05:37.643Z,97235.55
2023-03-08T18:10:45.249Z,97231.95
2023-03-08T18:15:55.308Z,97224.37
2023-03-08T18:21:13.193Z,97220.03
2023-03-08T18:26:22.010Z,97211.24
2023-03-08T18:31:31.197Z,97203.03
2023-03-08T18:36:39.575Z,97190.65
2023-03-08T18:41:47.278Z,97182.92
2023-03-08T18:46:55.458Z,97177.27
2023-03-08T18:52:03.164Z,97165.10
2023-03-08T18:57:10.807Z,97158.54
2023-03-08T19:02:18.772Z,97140.50
2023-03-08T19:07:26.692Z,97137.09
2023-03-08T19:12:37.774Z,97125.70
2023-03-08T19:17:45.744Z,97116.13
2023-03-08T19:22:52.958Z,97102.33
2023-03-08T19:27:58.592Z,97104.72
2023-03-08T19:33:06.724Z,97091.98
2023-03-08T19:38:14.054Z,97091.27
2023-03-08T19:43:21.347Z,97095.89
2023-03-08T19:48:28.566Z,97086.04
2023-03-08T19:53:36.092Z,97079.28
2023-03-08T19:58:43.686Z,97068.39
2023-03-08T20:03:51.491Z,97059.65
2023-03-08T20:08:59.304Z,97057.61
2023-03-08T20:14:08.617Z,97049.05
2023-03-08T20:19:18.165Z,97041.02
2023-03-08T20:24:25.851Z,97036.89
2023-03-08T20:29:33.597Z,97028.40
2023-03-08T20:34:41.210Z,97025.53
2023-03-08T20:39:51.516Z,97019.71
2023-03-08T20:44:58.849Z,97010.80
2023-03-08T20:50:06.662Z,97005.34
2023-03-08T20:55:14.277Z,97000.02
2023-03-08T21:00:25.385Z,96989.45
2023-03-08T21:05:36.173Z,96985.67
2023-03-08T21:10:43.892Z,96985.45
2023-03-08T21:15:52.505Z,96976.75
2023-03-08T21:21:00.380Z,96971.80
2023-03-08T21:26:08.588Z,96966.98
2023-03-08T21:31:17.646Z,96957.71
2023-03-08T21:36:26.172Z,96946.67
2023-03-08T21:41:35.541Z,96937.86
2023-03-08T21:46:44.005Z,96933.40
2023-03-08T21:51:52.724Z,96937.57
2023-03-08T21:57:00.564Z,96932.80
2023-03-08T22:02:10.544Z,96931.88
2023-03-08T22:07:17.862Z,96928.01
2023-03-08T22:12:25.568Z,96927.02
2023-03-08T22:17:33.281Z,96931.36
2023-03-08T22:22:42.106Z,96925.20
2023-03-08T22:27:49.549Z,96924.54
2023-03-08T22:32:58.038Z,96919.56
2023-03-08T22:38:05.142Z,96915.79
2023-03-08T22:43:12.821Z,96917.05
2023-03-08T22:48:20.164Z,96915.56
2023-03-08T22:53:27.810Z,96921.32
2023-03-08T22:58:34.986Z,96925.48
2023-03-08T23:03:42.825Z,96921.05
2023-03-08T23:08:51.078Z,96915.50
2023-03-08T23:13:58.849Z,96912.79
2023-03-08T23:19:06.622Z,96912.36
2023-03-08T23:24:15.964Z,96907.82
2023-03-08T23:29:24.656Z,96906.50
2023-03-08T23:34:32.449Z,96908.01
2023-03-08T23:39:41.331Z,96904.47
2023-03-08T23:44:48.691Z,96899.73
2023-03-08T23:49:56.272Z,96904.59
2023-03-08T23:55:03.573Z,96902.30
